sensor_id;sensor_type;location;lat;lon;timestamp;pressure;altitude;pressure_sealevel;temperature;humidity
2673;BME280;1346;51.558;6.996;2022-08-03T00:01:05;101016.72;;;21.05;100.00
2673;BME280;1346;51.558;6.996;2022-08-03T00:03:32;101014.63;;;21.01;100.00
2673;BME280;1346;51.558;6.996;2022-08-03T00:05:59;101016.75;;;20.99;100.00
2673;BME280;1346;51.558;6.996;2022-08-03T00:08:26;101016.06;;;20.97;100.00
2673;BME280;1346;51.558;6.996;2022-08-03T00:10:54;101013.78;;;20.94;100.00
2673;BME280;1346;51.558;6.996;2022-08-03T00:13:21;101013.38;;;20.90;100.00
2673;BME280;1346;51.558;6.996;2022-08-03T00:15:48;101008.31;;;20.87;100.00
2673;BME280;1346;51.558;6.996;2022-08-03T00:18:15;101002.28;;;20.85;100.00
2673;BME280;1346;51.558;6.996;2022-08-03T00:20:42;101003.94;;;20.86;100.00
2673;BME280;1346;51.558;6.996;2022-08-03T00:23:10;101007.72;;;20.85;100.00
2673;BME280;1346;51.558;6.996;2022-08-03T00:25:37;101005.81;;;20.86;100.00
2673;BME280;1346;51.558;6.996;2022-08-03T00:28:06;100995.34;;;20.83;100.00
2673;BME280;1346;51.558;6.996;2022-08-03T00:30:34;101000.16;;;20.81;100.00
2673;BME280;1346;51.558;6.996;2022-08-03T00:33:01;100998.72;;;20.78;100.00
2673;BME280;1346;51.558;6.996;2022-08-03T00:35:29;100999.16;;;20.75;100.00
2673;BME280;1346;51.558;6.996;2022-08-03T00:37:56;100987.84;;;20.72;100.00
2673;BME280;1346;51.558;6.996;2022-08-03T00:40:23;100997.47;;;20.68;100.00
2673;BME280;1346;51.558;6.996;2022-08-03T00:42:52;101000.84;;;20.63;100.00
2673;BME280;1346;51.558;6.996;2022-08-03T00:45:24;100988.69;;;20.59;100.00
2673;BME280;1346;51.558;6.996;2022-08-03T00:47:51;100997.50;;;20.55;100.00
2673;BME280;1346;51.558;6.996;2022-08-03T00:50:19;100988.06;;;20.51;100.00
2673;BME280;1346;51.558;6.996;2022-08-03T00:52:47;100987.66;;;20.47;100.00
2673;BME280;1346;51.558;6.996;2022-08-03T00:55:15;100988.72;;;20.46;100.00
2673;BME280;1346;51.558;6.996;2022-08-03T00:57:42;100985.16;;;20.46;100.00
2673;BME280;1346;51.558;6.996;2022-08-03T01:00:13;100987.88;;;20.46;100.00
2673;BME280;1346;51.558;6.996;2022-08-03T01:02:42;100988.72;;;20.46;100.00
2673;BME280;1346;51.558;6.996;2022-08-03T01:05:09;100991.22;;;20.41;100.00
2673;BME280;1346;51.558;6.996;2022-08-03T01:07:59;100994.34;;;20.38;100.00
2673;BME280;1346;51.558;6.996;2022-08-03T01:10:38;100993.75;;;20.36;100.00
2673;BME280;1346;51.558;6.996;2022-08-03T01:13:20;100989.97;;;20.30;100.00
2673;BME280;1346;51.558;6.996;2022-08-03T01:15:55;100987.88;;;20.26;100.00
2673;BME280;1346;51.558;6.996;2022-08-03T01:18:31;100985.78;;;20.21;100.00
2673;BME280;1346;51.558;6.996;2022-08-03T01:21:09;100988.91;;;20.18;100.00
2673;BME280;1346;51.558;6.996;2022-08-03T01:24:04;100986.19;;;20.18;100.00
2673;BME280;1346;51.558;6.996;2022-08-03T01:26:54;100986.19;;;20.18;100.00
2673;BME280;1346;51.558;6.996;2022-08-03T01:29:56;100984.53;;;20.17;100.00
2673;BME280;1346;51.558;6.996;2022-08-03T01:32:33;100989.97;;;20.17;100.00
2673;BME280;1346;51.558;6.996;2022-08-03T01:35:05;100983.00;;;20.15;100.00
2673;BME280;1346;51.558;6.996;2022-08-03T01:37:40;100987.81;;;20.13;100.00
2673;BME280;1346;51.558;6.996;2022-08-03T01:40:11;100992.84;;;20.09;100.00
2673;BME280;1346;51.558;6.996;2022-08-03T01:42:40;100988.03;;;20.05;100.00
2673;BME280;1346;51.558;6.996;2022-08-03T01:45:13;100979.66;;;20.00;100.00
2673;BME280;1346;51.558;6.996;2022-08-03T01:47:44;100984.88;;;19.95;100.00
2673;BME280;1346;51.558;6.996;2022-08-03T01:50:12;100983.59;;;19.91;100.00
2673;BME280;1346;51.558;6.996;2022-08-03T01:52:42;100977.53;;;19.89;100.00
2673;BME280;1346;51.558;6.996;2022-08-03T01:55:11;100980.88;;;19.84;100.00
2673;BME280;1346;51.558;6.996;2022-08-03T01:57:39;100977.75;;;19.81;100.00
2673;BME280;1346;51.558;6.996;2022-08-03T02:00:12;100979.00;;;19.78;100.00
2673;BME280;1346;51.558;6.996;2022-08-03T02:02:39;100969.38;;;19.76;100.00
2673;BME280;1346;51.558;6.996;2022-08-03T02:05:09;100970.63;;;19.73;100.00
2673;BME280;1346;51.558;6.996;2022-08-03T02:07:40;100974.78;;;19.69;100.00
2673;BME280;1346;51.558;6.996;2022-08-03T02:10:10;100977.06;;;19.66;100.00
2673;BME280;1346;51.558;6.996;2022-08-03T02:12:39;100978.53;;;19.62;100.00
2673;BME280;1346;51.558;6.996;2022-08-03T02:15:10;100976.00;;;19.60;100.00
2673;BME280;1346;51.558;6.996;2022-08-03T02:17:38;100976.44;;;19.57;100.00
2673;BME280;1346;51.558;6.996;2022-08-03T02:20:07;100975.16;;;19.53;100.00
2673;BME280;1346;51.558;6.996;2022-08-03T02:22:38;100975.56;;;19.50;100.00
2673;BME280;1346;51.558;6.996;2022-08-03T02:25:07;100973.06;;;19.49;100.00
2673;BME280;1346;51.558;6.996;2022-08-03T02:27:35;100980.56;;;19.47;100.00
2673;BME280;1346;51.558;6.996;2022-08-03T02:30:08;100973.69;;;19.44;100.00
2673;BME280;1346;51.558;6.996;2022-08-03T02:32:40;100973.03;;;19.42;100.00
2673;BME280;1346;51.558;6.996;2022-08-03T02:35:12;100983.69;;;19.37;100.00
2673;BME280;1346;51.558;6.996;2022-08-03T02:37:42;100979.28;;;19.36;100.00
2673;BME280;1346;51.558;6.996;2022-08-03T02:40:12;100980.72;;;19.32;100.00
2673;BME280;1346;51.558;6.996;2022-08-03T02:42:41;100975.50;;;19.31;100.00
2673;BME280;1346;51.558;6.996;2022-08-03T02:45:11;100974.84;;;19.28;100.00
2673;BME280;1346;51.558;6.996;2022-08-03T02:47:41;100983.19;;;19.27;100.00
2673;BME280;1346;51.558;6.996;2022-08-03T02:50:13;100982.75;;;19.23;100.00
2673;BME280;1346;51.558;6.996;2022-08-03T02:52:44;100977.53;;;19.22;100.00
2673;BME280;1346;51.558;6.996;2022-08-03T02:55:14;100963.50;;;19.18;100.00
2673;BME280;1346;51.558;6.996;2022-08-03T02:57:42;100974.59;;;19.17;100.00
2673;BME280;1346;51.558;6.996;2022-08-03T03:00:12;100975.59;;;19.16;100.00
2673;BME280;1346;51.558;6.996;2022-08-03T03:02:41;100966.63;;;19.15;100.00
2673;BME280;1346;51.558;6.996;2022-08-03T03:05:10;100965.16;;;19.13;100.00
2673;BME280;1346;51.558;6.996;2022-08-03T03:07:37;100969.94;;;19.11;100.00
2673;BME280;1346;51.558;6.996;2022-08-03T03:10:07;100964.91;;;19.08;100.00
2673;BME280;1346;51.558;6.996;2022-08-03T03:12:36;100965.31;;;19.05;100.00
2673;BME280;1346;51.558;6.996;2022-08-03T03:15:04;100965.31;;;19.05;100.00
2673;BME280;1346;51.558;6.996;2022-08-03T03:17:32;100974.50;;;19.04;100.00
2673;BME280;1346;51.558;6.996;2022-08-03T03:20:03;100971.97;;;19.02;100.00
2673;BME280;1346;51.558;6.996;2022-08-03T03:22:32;100967.81;;;19.00;100.00
2673;BME280;1346;51.558;6.996;2022-08-03T03:25:01;100976.38;;;18.97;100.00
2673;BME280;1346;51.558;6.996;2022-08-03T03:27:29;100973.00;;;18.95;100.00
2673;BME280;1346;51.558;6.996;2022-08-03T03:29:56;100973.00;;;18.95;100.00
2673;BME280;1346;51.558;6.996;2022-08-03T03:32:25;100969.66;;;18.93;100.00
2673;BME280;1346;51.558;6.996;2022-08-03T03:34:53;100976.13;;;18.92;100.00
2673;BME280;1346;51.558;6.996;2022-08-03T03:37:21;100973.59;;;18.90;100.00
2673;BME280;1346;51.558;6.996;2022-08-03T03:39:48;100968.16;;;18.90;100.00
2673;BME280;1346;51.558;6.996;2022-08-03T03:42:15;100968.16;;;18.90;100.00
2673;BME280;1346;51.558;6.996;2022-08-03T03:44:42;100974.63;;;18.89;100.00
2673;BME280;1346;51.558;6.996;2022-08-03T03:47:09;100968.56;;;18.87;100.00
2673;BME280;1346;51.558;6.996;2022-08-03T03:49:36;100972.34;;;18.86;100.00
2673;BME280;1346;51.558;6.996;2022-08-03T03:52:04;100970.47;;;18.87;100.00
2673;BME280;1346;51.558;6.996;2022-08-03T03:54:40;100974.19;;;18.86;100.00
2673;BME280;1346;51.558;6.996;2022-08-03T03:57:07;100972.53;;;18.85;100.00
2673;BME280;1346;51.558;6.996;2022-08-03T03:59:37;100968.97;;;18.84;100.00
2673;BME280;1346;51.558;6.996;2022-08-03T04:02:05;100974.81;;;18.81;100.00
2673;BME280;1346;51.558;6.996;2022-08-03T04:04:32;100973.09;;;18.80;100.00
2673;BME280;1346;51.558;6.996;2022-08-03T04:07:16;100967.25;;;18.77;100.00
2673;BME280;1346;51.558;6.996;2022-08-03T04:10:09;100974.13;;;18.73;100.00
2673;BME280;1346;51.558;6.996;2022-08-03T04:12:55;100967.00;;;18.72;100.00
2673;BME280;1346;51.558;6.996;2022-08-03T04:15:25;100978.06;;;18.70;100.00
2673;BME280;1346;51.558;6.996;2022-08-03T04:17:55;100970.13;;;18.69;100.00
2673;BME280;1346;51.558;6.996;2022-08-03T04:20:27;100975.75;;;18.67;100.00
2673;BME280;1346;51.558;6.996;2022-08-03T04:22:57;100975.53;;;18.69;100.00
2673;BME280;1346;51.558;6.996;2022-08-03T04:25:32;100979.97;;;18.70;100.00
2673;BME280;1346;51.558;6.996;2022-08-03T04:28:00;100969.09;;;18.70;100.00
2673;BME280;1346;51.558;6.996;2022-08-03T04:30:29;100974.31;;;18.71;100.00
2673;BME280;1346;51.558;6.996;2022-08-03T04:32:58;100975.16;;;18.72;100.00
2673;BME280;1346;51.558;6.996;2022-08-03T04:35:30;100978.69;;;18.72;100.00
2673;BME280;1346;51.558;6.996;2022-08-03T04:38:02;100983.94;;;18.74;100.00
2673;BME280;1346;51.558;6.996;2022-08-03T04:40:35;100977.47;;;18.75;100.00
2673;BME280;1346;51.558;6.996;2022-08-03T04:43:04;100982.31;;;18.79;100.00
2673;BME280;1346;51.558;6.996;2022-08-03T04:45:32;100983.75;;;18.82;100.00
2673;BME280;1346;51.558;6.996;2022-08-03T04:48:00;100984.22;;;18.85;100.00
2673;BME280;1346;51.558;6.996;2022-08-03T04:50:27;100982.78;;;18.89;100.00
2673;BME280;1346;51.558;6.996;2022-08-03T04:52:55;100980.50;;;18.93;100.00
2673;BME280;1346;51.558;6.996;2022-08-03T04:55:26;100985.31;;;18.97;100.00
2673;BME280;1346;51.558;6.996;2022-08-03T04:57:54;100985.75;;;19.01;100.00
2673;BME280;1346;51.558;6.996;2022-08-03T05:00:22;100982.63;;;19.04;100.00
2673;BME280;1346;51.558;6.996;2022-08-03T05:02:49;100973.72;;;19.10;100.00
2673;BME280;1346;51.558;6.996;2022-08-03T05:05:16;100980.66;;;19.19;100.00
2673;BME280;1346;51.558;6.996;2022-08-03T05:07:43;100979.63;;;19.26;100.00
2673;BME280;1346;51.558;6.996;2022-08-03T05:10:12;100981.38;;;19.34;100.00
2673;BME280;1346;51.558;6.996;2022-08-03T05:12:39;100990.38;;;19.41;100.00
2673;BME280;1346;51.558;6.996;2022-08-03T05:15:09;100987.69;;;19.48;100.00
2673;BME280;1346;51.558;6.996;2022-08-03T05:17:36;100990.44;;;19.54;100.00
2673;BME280;1346;51.558;6.996;2022-08-03T05:20:04;100994.00;;;19.61;100.00
2673;BME280;1346;51.558;6.996;2022-08-03T05:22:31;100994.47;;;19.71;100.00
2673;BME280;1346;51.558;6.996;2022-08-03T05:25:00;101000.34;;;19.81;100.00
2673;BME280;1346;51.558;6.996;2022-08-03T05:27:27;100986.97;;;19.86;100.00
2673;BME280;1346;51.558;6.996;2022-08-03T05:29:54;100992.84;;;19.96;100.00
2673;BME280;1346;51.558;6.996;2022-08-03T05:32:22;100992.19;;;20.07;100.00
2673;BME280;1346;51.558;6.996;2022-08-03T05:34:49;100992.88;;;20.16;100.00
2673;BME280;1346;51.558;6.996;2022-08-03T05:37:16;100992.47;;;20.25;100.00
2673;BME280;1346;51.558;6.996;2022-08-03T05:39:43;100996.69;;;20.34;100.00
2673;BME280;1346;51.558;6.996;2022-08-03T05:42:10;101001.47;;;20.46;100.00
2673;BME280;1346;51.558;6.996;2022-08-03T05:44:37;100994.56;;;20.56;100.00
2673;BME280;1346;51.558;6.996;2022-08-03T05:47:04;101001.25;;;20.67;100.00
2673;BME280;1346;51.558;6.996;2022-08-03T05:49:32;100998.72;;;20.78;100.00
2673;BME280;1346;51.558;6.996;2022-08-03T05:51:59;100992.63;;;20.89;100.00
2673;BME280;1346;51.558;6.996;2022-08-03T05:54:26;101005.41;;;21.02;100.00
2673;BME280;1346;51.558;6.996;2022-08-03T05:56:53;101004.94;;;21.11;100.00
2673;BME280;1346;51.558;6.996;2022-08-03T05:59:20;100999.03;;;21.27;100.00
2673;BME280;1346;51.558;6.996;2022-08-03T06:01:47;101001.50;;;21.42;100.00
2673;BME280;1346;51.558;6.996;2022-08-03T06:04:14;100993.47;;;21.53;100.00
2673;BME280;1346;51.558;6.996;2022-08-03T06:06:42;100998.25;;;21.65;100.00
2673;BME280;1346;51.558;6.996;2022-08-03T06:09:09;101001.78;;;21.72;100.00
2673;BME280;1346;51.558;6.996;2022-08-03T06:11:36;100994.44;;;21.79;100.00
2673;BME280;1346;51.558;6.996;2022-08-03T06:14:03;101001.50;;;21.86;100.00
2673;BME280;1346;51.558;6.996;2022-08-03T06:16:30;101000.19;;;21.95;100.00
2673;BME280;1346;51.558;6.996;2022-08-03T06:18:58;100997.19;;;22.03;100.00
2673;BME280;1346;51.558;6.996;2022-08-03T06:21:25;101001.34;;;22.12;100.00
2673;BME280;1346;51.558;6.996;2022-08-03T06:23:53;100993.94;;;22.19;100.00
2673;BME280;1346;51.558;6.996;2022-08-03T06:26:20;101000.78;;;22.28;100.00
2673;BME280;1346;51.558;6.996;2022-08-03T06:28:47;101005.75;;;22.38;100.00
2673;BME280;1346;51.558;6.996;2022-08-03T06:31:14;101001.91;;;22.45;100.00
2673;BME280;1346;51.558;6.996;2022-08-03T06:33:41;101008.13;;;22.59;100.00
2673;BME280;1346;51.558;6.996;2022-08-03T06:36:08;101009.91;;;22.71;100.00
2673;BME280;1346;51.558;6.996;2022-08-03T06:38:35;101002.91;;;22.75;100.00
2673;BME280;1346;51.558;6.996;2022-08-03T06:41:03;101010.44;;;22.80;100.00
2673;BME280;1346;51.558;6.996;2022-08-03T06:43:30;101004.06;;;22.86;100.00
2673;BME280;1346;51.558;6.996;2022-08-03T06:46:00;101009.47;;;22.93;100.00
2673;BME280;1346;51.558;6.996;2022-08-03T06:48:27;101007.88;;;23.03;100.00
2673;BME280;1346;51.558;6.996;2022-08-03T06:50:54;101007.75;;;23.16;100.00
2673;BME280;1346;51.558;6.996;2022-08-03T06:53:20;101010.59;;;23.28;100.00
2673;BME280;1346;51.558;6.996;2022-08-03T06:55:47;101008.78;;;23.40;100.00
2673;BME280;1346;51.558;6.996;2022-08-03T06:58:16;101004.03;;;23.47;100.00
2673;BME280;1346;51.558;6.996;2022-08-03T07:00:42;101014.66;;;23.55;100.00
2673;BME280;1346;51.558;6.996;2022-08-03T07:03:09;101013.97;;;23.59;100.00
2673;BME280;1346;51.558;6.996;2022-08-03T07:05:36;101014.59;;;23.61;100.00
2673;BME280;1346;51.558;6.996;2022-08-03T07:08:03;101009.25;;;23.66;100.00
2673;BME280;1346;51.558;6.996;2022-08-03T07:10:30;101020.47;;;23.76;100.00
2673;BME280;1346;51.558;6.996;2022-08-03T07:12:57;101016.59;;;23.84;100.00
2673;BME280;1346;51.558;6.996;2022-08-03T07:15:25;101020.66;;;23.93;100.00
2673;BME280;1346;51.558;6.996;2022-08-03T07:17:52;101020.38;;;24.01;100.00
2673;BME280;1346;51.558;6.996;2022-08-03T07:20:19;101027.19;;;24.10;100.00
2673;BME280;1346;51.558;6.996;2022-08-03T07:22:46;101032.91;;;24.20;100.00
2673;BME280;1346;51.558;6.996;2022-08-03T07:25:13;101034.00;;;24.19;100.00
2673;BME280;1346;51.558;6.996;2022-08-03T07:27:42;101026.97;;;24.23;100.00
2673;BME280;1346;51.558;6.996;2022-08-03T07:30:10;101032.59;;;24.28;100.00
2673;BME280;1346;51.558;6.996;2022-08-03T07:32:39;101032.25;;;24.36;100.00
2673;BME280;1346;51.558;6.996;2022-08-03T07:35:08;101035.00;;;24.48;100.00
2673;BME280;1346;51.558;6.996;2022-08-03T07:37:36;101047.53;;;24.55;100.00
2673;BME280;1346;51.558;6.996;2022-08-03T07:40:05;101039.31;;;24.67;100.00
2673;BME280;1346;51.558;6.996;2022-08-03T07:42:32;101033.53;;;24.75;100.00
2673;BME280;1346;51.558;6.996;2022-08-03T07:44:59;101034.00;;;24.83;100.00
2673;BME280;1346;51.558;6.996;2022-08-03T07:47:28;101040.56;;;24.94;100.00
2673;BME280;1346;51.558;6.996;2022-08-03T07:49:57;101031.63;;;24.98;100.00
2673;BME280;1346;51.558;6.996;2022-08-03T07:52:24;101029.34;;;25.07;100.00
2673;BME280;1346;51.558;6.996;2022-08-03T07:55:09;101038.88;;;25.16;100.00
2673;BME280;1346;51.558;6.996;2022-08-03T07:57:36;101050.31;;;25.25;100.00
2673;BME280;1346;51.558;6.996;2022-08-03T08:00:06;101032.28;;;25.29;100.00
2673;BME280;1346;51.558;6.996;2022-08-03T08:02:34;101042.31;;;25.35;99.92
2673;BME280;1346;51.558;6.996;2022-08-03T08:05:03;101037.56;;;25.42;99.91
2673;BME280;1346;51.558;6.996;2022-08-03T08:07:30;101043.25;;;25.52;98.98
2673;BME280;1346;51.558;6.996;2022-08-03T08:09:57;101045.63;;;25.60;99.27
2673;BME280;1346;51.558;6.996;2022-08-03T08:12:24;101041.31;;;25.64;98.74
2673;BME280;1346;51.558;6.996;2022-08-03T08:14:50;101037.59;;;25.70;99.38
2673;BME280;1346;51.558;6.996;2022-08-03T08:17:17;101032.28;;;25.80;98.28
2673;BME280;1346;51.558;6.996;2022-08-03T08:19:45;101036.94;;;25.91;97.18
2673;BME280;1346;51.558;6.996;2022-08-03T08:22:13;101036.06;;;26.02;97.92
2673;BME280;1346;51.558;6.996;2022-08-03T08:24:40;101041.13;;;26.10;96.07
2673;BME280;1346;51.558;6.996;2022-08-03T08:27:09;101036.34;;;26.17;96.07
2673;BME280;1346;51.558;6.996;2022-08-03T08:29:36;101034.78;;;26.21;95.86
2673;BME280;1346;51.558;6.996;2022-08-03T08:32:04;101039.75;;;26.24;95.21
2673;BME280;1346;51.558;6.996;2022-08-03T08:34:31;101039.50;;;26.26;95.46
2673;BME280;1346;51.558;6.996;2022-08-03T08:36:58;101046.69;;;26.27;94.63
2673;BME280;1346;51.558;6.996;2022-08-03T08:39:26;101038.69;;;26.25;94.57
2673;BME280;1346;51.558;6.996;2022-08-03T08:41:53;101035.38;;;26.23;94.62
2673;BME280;1346;51.558;6.996;2022-08-03T08:44:20;101036.59;;;26.32;94.20
2673;BME280;1346;51.558;6.996;2022-08-03T08:46:47;101026.03;;;26.41;93.84
2673;BME280;1346;51.558;6.996;2022-08-03T08:49:18;101034.97;;;26.48;93.80
2673;BME280;1346;51.558;6.996;2022-08-03T08:51:50;101029.03;;;26.56;92.67
2673;BME280;1346;51.558;6.996;2022-08-03T08:54:20;101036.81;;;26.59;92.93
2673;BME280;1346;51.558;6.996;2022-08-03T08:56:50;101024.22;;;26.63;93.61
2673;BME280;1346;51.558;6.996;2022-08-03T08:59:18;101030.75;;;26.73;93.06
2673;BME280;1346;51.558;6.996;2022-08-03T09:01:46;101032.31;;;26.86;91.46
2673;BME280;1346;51.558;6.996;2022-08-03T09:04:13;101031.44;;;27.02;88.96
2673;BME280;1346;51.558;6.996;2022-08-03T09:06:40;101021.38;;;27.07;87.21
2673;BME280;1346;51.558;6.996;2022-08-03T09:09:07;101031.25;;;27.08;87.54
2673;BME280;1346;51.558;6.996;2022-08-03T09:11:34;101024.78;;;27.14;88.48
2673;BME280;1346;51.558;6.996;2022-08-03T09:14:03;101025.75;;;27.25;87.95
2673;BME280;1346;51.558;6.996;2022-08-03T09:16:30;101031.94;;;27.32;88.23
2673;BME280;1346;51.558;6.996;2022-08-03T09:19:11;101028.47;;;27.42;86.26
2673;BME280;1346;51.558;6.996;2022-08-03T09:21:38;101029.44;;;27.52;85.70
2673;BME280;1346;51.558;6.996;2022-08-03T09:24:06;101031.16;;;27.58;85.65
2673;BME280;1346;51.558;6.996;2022-08-03T09:26:35;101030.94;;;27.65;84.94
2673;BME280;1346;51.558;6.996;2022-08-03T09:29:06;101030.56;;;27.78;84.55
2673;BME280;1346;51.558;6.996;2022-08-03T09:31:35;101036.19;;;27.88;83.09
2673;BME280;1346;51.558;6.996;2022-08-03T09:34:04;101035.75;;;27.96;81.65
2673;BME280;1346;51.558;6.996;2022-08-03T09:36:37;101036.91;;;28.00;80.59
2673;BME280;1346;51.558;6.996;2022-08-03T09:39:07;101035.81;;;28.01;79.05
2673;BME280;1346;51.558;6.996;2022-08-03T09:41:37;101035.81;;;28.01;79.02
2673;BME280;1346;51.558;6.996;2022-08-03T09:44:06;101031.41;;;28.00;81.08
2673;BME280;1346;51.558;6.996;2022-08-03T09:46:47;101034.44;;;28.03;80.00
2673;BME280;1346;51.558;6.996;2022-08-03T09:49:15;101033.22;;;28.16;79.71
2673;BME280;1346;51.558;6.996;2022-08-03T09:51:42;101036.38;;;28.29;78.59
2673;BME280;1346;51.558;6.996;2022-08-03T09:54:09;101028.19;;;28.39;76.94
2673;BME280;1346;51.558;6.996;2022-08-03T09:56:41;101036.09;;;28.53;73.22
2673;BME280;1346;51.558;6.996;2022-08-03T09:59:11;101033.97;;;28.70;74.53
2673;BME280;1346;51.558;6.996;2022-08-03T10:01:39;101033.78;;;28.76;70.97
2673;BME280;1346;51.558;6.996;2022-08-03T10:04:11;101031.03;;;28.76;69.33
2673;BME280;1346;51.558;6.996;2022-08-03T10:06:43;101028.78;;;28.73;69.87
2673;BME280;1346;51.558;6.996;2022-08-03T10:09:13;101028.31;;;28.81;67.89
2673;BME280;1346;51.558;6.996;2022-08-03T10:11:42;101030.28;;;28.91;65.31
2673;BME280;1346;51.558;6.996;2022-08-03T10:14:11;101023.97;;;28.95;65.63
2673;BME280;1346;51.558;6.996;2022-08-03T10:16:44;101022.69;;;29.08;64.71
2673;BME280;1346;51.558;6.996;2022-08-03T10:19:12;101019.75;;;29.19;65.23
2673;BME280;1346;51.558;6.996;2022-08-03T10:21:41;101012.63;;;29.28;64.37
2673;BME280;1346;51.558;6.996;2022-08-03T10:24:16;101023.72;;;29.38;63.86
2673;BME280;1346;51.558;6.996;2022-08-03T10:26:45;101018.78;;;29.45;62.50
2673;BME280;1346;51.558;6.996;2022-08-03T10:29:21;101013.78;;;29.42;62.21
2673;BME280;1346;51.558;6.996;2022-08-03T10:31:53;101019.34;;;29.47;62.09
2673;BME280;1346;51.558;6.996;2022-08-03T10:34:24;101015.50;;;29.53;60.96
2673;BME280;1346;51.558;6.996;2022-08-03T10:36:55;101008.34;;;29.62;62.26
2673;BME280;1346;51.558;6.996;2022-08-03T10:39:28;101015.00;;;29.67;59.83
2673;BME280;1346;51.558;6.996;2022-08-03T10:41:56;101009.47;;;29.67;59.04
2673;BME280;1346;51.558;6.996;2022-08-03T10:44:31;101002.59;;;29.69;58.29
2673;BME280;1346;51.558;6.996;2022-08-03T10:46:59;100997.09;;;29.69;58.60
2673;BME280;1346;51.558;6.996;2022-08-03T10:49:27;101001.78;;;29.79;57.40
2673;BME280;1346;51.558;6.996;2022-08-03T10:51:54;100994.06;;;29.86;56.87
2673;BME280;1346;51.558;6.996;2022-08-03T10:54:41;101001.31;;;30.02;57.15
2673;BME280;1346;51.558;6.996;2022-08-03T10:57:47;100996.88;;;30.16;57.61
2673;BME280;1346;51.558;6.996;2022-08-03T11:00:17;100988.06;;;30.19;55.46
2673;BME280;1346;51.558;6.996;2022-08-03T11:03:08;100989.47;;;30.31;56.86
2673;BME280;1346;51.558;6.996;2022-08-03T11:05:40;100978.41;;;30.41;56.12
2673;BME280;1346;51.558;6.996;2022-08-03T11:08:23;100977.03;;;30.49;56.72
2673;BME280;1346;51.558;6.996;2022-08-03T11:10:54;100979.50;;;30.60;54.56
2673;BME280;1346;51.558;6.996;2022-08-03T11:13:23;100969.28;;;30.66;52.74
2673;BME280;1346;51.558;6.996;2022-08-03T11:15:55;100974.25;;;30.79;53.20
2673;BME280;1346;51.558;6.996;2022-08-03T11:18:22;100978.94;;;30.89;55.30
2673;BME280;1346;51.558;6.996;2022-08-03T11:20:51;100970.91;;;30.77;53.32
2673;BME280;1346;51.558;6.996;2022-08-03T11:26:15;100979.22;;;30.67;52.94
2673;BME280;1346;51.558;6.996;2022-08-03T11:28:45;100984.75;;;30.67;52.30
2673;BME280;1346;51.558;6.996;2022-08-03T11:31:56;100979.19;;;30.77;50.22
2673;BME280;1346;51.558;6.996;2022-08-03T11:34:24;100975.63;;;30.92;51.79
2673;BME280;1346;51.558;6.996;2022-08-03T11:37:21;100974.41;;;31.18;50.64
2673;BME280;1346;51.558;6.996;2022-08-03T11:39:52;100977.44;;;31.26;49.35
2673;BME280;1346;51.558;6.996;2022-08-03T11:42:41;100977.97;;;31.38;49.45
2673;BME280;1346;51.558;6.996;2022-08-03T11:45:13;100969.31;;;31.50;47.31
2673;BME280;1346;51.558;6.996;2022-08-03T11:47:42;100976.50;;;31.56;47.75
2673;BME280;1346;51.558;6.996;2022-08-03T11:50:09;100966.78;;;31.58;48.04
2673;BME280;1346;51.558;6.996;2022-08-03T11:52:41;100963.91;;;31.78;49.68
2673;BME280;1346;51.558;6.996;2022-08-03T11:55:14;100968.78;;;32.02;48.28
2673;BME280;1346;51.558;6.996;2022-08-03T11:57:42;100966.81;;;32.07;46.46
2673;BME280;1346;51.558;6.996;2022-08-03T12:00:29;100961.22;;;32.12;47.52
2673;BME280;1346;51.558;6.996;2022-08-03T12:03:01;100965.16;;;32.35;48.37
2673;BME280;1346;51.558;6.996;2022-08-03T12:05:47;100964.16;;;32.59;46.40
2673;BME280;1346;51.558;6.996;2022-08-03T12:08:16;100972.44;;;32.64;47.36
2673;BME280;1346;51.558;6.996;2022-08-03T12:10:49;100964.59;;;32.71;47.06
2673;BME280;1346;51.558;6.996;2022-08-03T12:13:16;100967.91;;;32.73;46.99
2673;BME280;1346;51.558;6.996;2022-08-03T12:15:50;100966.69;;;32.56;45.94
2673;BME280;1346;51.558;6.996;2022-08-03T12:18:21;100965.72;;;32.37;45.81
2673;BME280;1346;51.558;6.996;2022-08-03T12:20:49;100971.97;;;32.19;44.97
2673;BME280;1346;51.558;6.996;2022-08-03T12:23:17;100965.94;;;32.12;47.27
2673;BME280;1346;51.558;6.996;2022-08-03T12:25:45;100962.88;;;32.13;46.40
2673;BME280;1346;51.558;6.996;2022-08-03T12:28:15;100960.63;;;32.15;47.92
2673;BME280;1346;51.558;6.996;2022-08-03T12:30:45;100948.13;;;32.18;48.33
2673;BME280;1346;51.558;6.996;2022-08-03T12:33:20;100955.38;;;32.14;46.20
2673;BME280;1346;51.558;6.996;2022-08-03T12:36:00;100950.44;;;32.11;46.48
2673;BME280;1346;51.558;6.996;2022-08-03T12:38:29;100956.09;;;32.29;47.49
2673;BME280;1346;51.558;6.996;2022-08-03T12:41:03;100955.28;;;32.57;48.66
2673;BME280;1346;51.558;6.996;2022-08-03T12:43:31;100958.03;;;32.91;49.13
2673;BME280;1346;51.558;6.996;2022-08-03T12:46:13;100954.13;;;33.16;44.67
2673;BME280;1346;51.558;6.996;2022-08-03T12:49:05;100947.50;;;33.12;42.96
2673;BME280;1346;51.558;6.996;2022-08-03T12:51:35;100941.53;;;33.23;45.42
2673;BME280;1346;51.558;6.996;2022-08-03T12:54:04;100954.00;;;33.26;41.70
2673;BME280;1346;51.558;6.996;2022-08-03T12:56:32;100947.09;;;33.23;42.15
2673;BME280;1346;51.558;6.996;2022-08-03T12:58:59;100949.31;;;33.21;41.86
2673;BME280;1346;51.558;6.996;2022-08-03T13:01:34;100943.78;;;33.21;41.03
2673;BME280;1346;51.558;6.996;2022-08-03T13:04:03;100931.06;;;33.39;41.77
2673;BME280;1346;51.558;6.996;2022-08-03T13:06:31;100930.88;;;33.72;43.89
2673;BME280;1346;51.558;6.996;2022-08-03T13:09:05;100938.41;;;34.09;41.07
2673;BME280;1346;51.558;6.996;2022-08-03T13:11:32;100932.84;;;34.41;39.17
2673;BME280;1346;51.558;6.996;2022-08-03T13:13:59;100940.31;;;34.59;39.64
2673;BME280;1346;51.558;6.996;2022-08-03T13:16:27;100939.50;;;34.72;38.37
2673;BME280;1346;51.558;6.996;2022-08-03T13:18:54;100939.31;;;34.82;39.09
2673;BME280;1346;51.558;6.996;2022-08-03T13:21:22;100942.88;;;35.01;38.33
2673;BME280;1346;51.558;6.996;2022-08-03T13:23:49;100942.97;;;35.23;37.60